Time;durP1;ratioP1;P1;durP2;ratioP2;P2;SDS_P1;SDS_P2;PMS_P1;PMS_P2;Temp;Humidity;BMP_temperature;BMP_pressure;BME280_temperature;BME280_humidity;BME280_pressure;Samples;Min_cycle;Max_cycle;Signal;HPM_P1;HPM_P2
2022/03/30 00:02:18;;;;;;;71.80;31.67;;;;;;;;;;6177131;23;20262;-52
2022/03/30 00:04:43;;;;;;;65.32;28.52;;;;;;;;;;6175956;23;20013;-51
2022/03/30 00:07:08;;;;;;;78.50;33.00;;;;;;;;;;6177099;23;20020;-51
2022/03/30 00:09:34;;;;;;;82.15;33.20;;;;;;;;;;6176997;23;20036;-52
2022/03/30 00:11:59;;;;;;;78.30;31.73;;;;;;;;;;6151986;23;20044;-53
2022/03/30 00:14:25;;;;;;;70.78;28.98;;;;;;;;;;6174852;23;20024;-51
2022/03/30 00:16:51;;;;;;;80.05;32.33;;;;;;;;;;6177878;23;20075;-51
2022/03/30 00:19:17;;;;;;;79.63;31.02;;;;;;;;;;6175083;23;20035;-52
2022/03/30 00:21:42;;;;;;;71.30;30.60;;;;;;;;;;6178577;23;20470;-52
2022/03/30 00:24:07;;;;;;;76.38;30.80;;;;;;;;;;6175398;23;20017;-49
2022/03/30 00:26:33;;;;;;;78.65;31.92;;;;;;;;;;6177422;23;20017;-51
2022/03/30 00:28:58;;;;;;;74.03;31.33;;;;;;;;;;6174930;23;20028;-52
2022/03/30 00:31:23;;;;;;;76.05;31.65;;;;;;;;;;6176124;23;20020;-52
2022/03/30 00:33:50;;;;;;;78.70;32.15;;;;;;;;;;6176903;23;20021;-53
2022/03/30 00:36:15;;;;;;;72.90;33.33;;;;;;;;;;6176113;23;20032;-55
2022/03/30 00:38:40;;;;;;;69.93;32.22;;;;;;;;;;6176997;23;20017;-50
2022/03/30 00:41:06;;;;;;;64.82;30.08;;;;;;;;;;6176340;23;20037;-54
2022/03/30 00:43:33;;;;;;;71.80;32.47;;;;;;;;;;6115514;23;1445420;-53
2022/03/30 00:45:58;;;;;;;70.82;31.13;;;;;;;;;;6178560;23;20017;-53
2022/03/30 00:48:24;;;;;;;72.78;31.70;;;;;;;;;;6177907;23;20056;-51
2022/03/30 00:50:49;;;;;;;71.60;31.67;;;;;;;;;;6178742;23;20051;-54
2022/03/30 00:53:14;;;;;;;73.47;32.25;;;;;;;;;;6176359;23;20015;-52
2022/03/30 00:55:39;;;;;;;77.63;30.90;;;;;;;;;;6179286;23;20032;-52
2022/03/30 00:58:06;;;;;;;70.85;31.23;;;;;;;;;;6177996;23;20087;-53
2022/03/30 01:00:31;;;;;;;72.35;31.08;;;;;;;;;;6178688;23;20039;-53
2022/03/30 01:02:56;;;;;;;65.75;30.30;;;;;;;;;;6177311;23;20013;-53
2022/03/30 01:05:22;;;;;;;75.15;32.55;;;;;;;;;;6175630;23;20025;-54
2022/03/30 01:07:47;;;;;;;69.40;31.17;;;;;;;;;;6178300;23;20024;-51
2022/03/30 01:10:13;;;;;;;69.93;29.08;;;;;;;;;;6177835;23;20405;-54
2022/03/30 01:12:39;;;;;;;75.93;31.75;;;;;;;;;;6177221;23;20017;-55
2022/03/30 01:15:05;;;;;;;74.07;31.83;;;;;;;;;;6178617;23;20132;-49
2022/03/30 01:17:30;;;;;;;80.05;29.92;;;;;;;;;;6176635;23;20001;-53
2022/03/30 01:19:55;;;;;;;73.70;30.65;;;;;;;;;;6179068;23;20015;-54
2022/03/30 01:22:21;;;;;;;71.35;30.45;;;;;;;;;;6176343;23;20076;-52
2022/03/30 01:24:46;;;;;;;72.53;28.45;;;;;;;;;;6178865;23;20032;-54
2022/03/30 01:27:11;;;;;;;57.97;28.75;;;;;;;;;;6176835;23;20013;-53
2022/03/30 01:32:26;;;;;;;64.70;28.00;;;;;;;;;;6176453;23;20040;-51
2022/03/30 01:34:52;;;;;;;68.13;28.17;;;;;;;;;;6178239;23;20019;-52
2022/03/30 01:37:17;;;;;;;64.00;28.85;;;;;;;;;;6176905;23;20009;-53
2022/03/30 01:39:43;;;;;;;62.95;29.17;;;;;;;;;;6178739;23;20028;-54
2022/03/30 01:42:08;;;;;;;71.68;30.50;;;;;;;;;;6177157;23;20021;-52
2022/03/30 01:44:34;;;;;;;67.20;28.38;;;;;;;;;;6177296;23;20346;-52
2022/03/30 01:46:59;;;;;;;67.60;28.10;;;;;;;;;;6177218;23;20378;-53
2022/03/30 01:49:24;;;;;;;60.38;27.17;;;;;;;;;;6177425;23;20076;-54
2022/03/30 01:51:50;;;;;;;70.00;29.48;;;;;;;;;;6177604;23;20013;-49
2022/03/30 01:54:20;;;;;;;69.28;30.58;;;;;;;;;;6176197;23;20013;-52
2022/03/30 01:56:45;;;;;;;67.88;30.13;;;;;;;;;;6178388;23;20048;-52
2022/03/30 01:59:11;;;;;;;57.38;27.40;;;;;;;;;;6177393;23;20021;-51
2022/03/30 02:01:37;;;;;;;60.75;29.38;;;;;;;;;;6176737;23;20037;-52
2022/03/30 02:04:02;;;;;;;60.15;27.70;;;;;;;;;;6176655;23;20614;-53
2022/03/30 02:06:27;;;;;;;69.90;30.98;;;;;;;;;;6176329;23;20020;-50
2022/03/30 02:08:53;;;;;;;68.53;29.27;;;;;;;;;;6178727;23;20017;-52
2022/03/30 02:11:18;;;;;;;65.60;28.80;;;;;;;;;;6176697;23;20475;-51
2022/03/30 02:13:44;;;;;;;68.38;29.45;;;;;;;;;;6176593;23;20028;-56
2022/03/30 02:16:09;;;;;;;62.67;28.85;;;;;;;;;;6176339;23;20462;-54
2022/03/30 02:18:35;;;;;;;68.70;29.77;;;;;;;;;;6177388;23;20009;-50
2022/03/30 02:21:00;;;;;;;67.70;28.42;;;;;;;;;;6176828;23;20033;-52
2022/03/30 02:23:26;;;;;;;56.58;26.58;;;;;;;;;;6176645;23;20028;-51
2022/03/30 02:25:51;;;;;;;62.55;29.30;;;;;;;;;;6175012;23;20013;-51
2022/03/30 02:28:16;;;;;;;67.00;29.05;;;;;;;;;;6177074;23;20013;-53
2022/03/30 02:30:41;;;;;;;58.75;27.88;;;;;;;;;;6177241;23;20021;-50
2022/03/30 02:33:07;;;;;;;53.20;26.63;;;;;;;;;;6177775;23;20013;-54
2022/03/30 02:35:33;;;;;;;70.35;28.02;;;;;;;;;;6177039;23;20052;-53
2022/03/30 02:37:59;;;;;;;62.03;27.73;;;;;;;;;;6178294;23;20005;-53
2022/03/30 02:40:24;;;;;;;57.38;25.17;;;;;;;;;;6176767;23;20051;-52
2022/03/30 02:42:50;;;;;;;55.35;25.95;;;;;;;;;;6177151;23;20025;-52
2022/03/30 02:45:15;;;;;;;63.40;27.95;;;;;;;;;;6176969;23;20597;-54
2022/03/30 02:50:24;;;;;;;67.40;26.65;;;;;;;;;;6171846;23;20406;-53
2022/03/30 02:52:49;;;;;;;60.65;26.50;;;;;;;;;;6178870;23;20013;-50
2022/03/30 02:55:15;;;;;;;58.08;26.42;;;;;;;;;;6178601;23;20036;-54
2022/03/30 02:57:40;;;;;;;57.38;25.67;;;;;;;;;;6176185;23;20025;-51
2022/03/30 03:00:06;;;;;;;63.30;27.15;;;;;;;;;;6178897;23;20510;-53
2022/03/30 03:02:31;;;;;;;66.50;28.30;;;;;;;;;;6177127;23;20017;-50
2022/03/30 03:04:56;;;;;;;56.10;26.23;;;;;;;;;;6180026;23;20020;-52
2022/03/30 03:07:21;;;;;;;68.13;28.85;;;;;;;;;;6178671;23;20021;-55
2022/03/30 03:09:47;;;;;;;57.47;28.92;;;;;;;;;;6177601;23;20017;-52
2022/03/30 03:12:12;;;;;;;59.17;27.83;;;;;;;;;;6179869;23;20017;-50
2022/03/30 03:14:37;;;;;;;66.68;28.55;;;;;;;;;;6176566;23;20359;-56
2022/03/30 03:17:03;;;;;;;64.63;27.55;;;;;;;;;;6180440;23;20017;-52
2022/03/30 03:19:28;;;;;;;58.15;28.25;;;;;;;;;;6176607;23;20017;-48
2022/03/30 03:21:54;;;;;;;65.32;28.92;;;;;;;;;;6179596;23;20024;-50
2022/03/30 03:24:19;;;;;;;67.63;29.63;;;;;;;;;;6177997;23;20119;-50
2022/03/30 03:26:44;;;;;;;70.10;30.33;;;;;;;;;;6177894;23;20502;-52
2022/03/30 03:29:10;;;;;;;71.28;31.52;;;;;;;;;;6179298;23;20675;-49
2022/03/30 03:31:35;;;;;;;75.72;31.10;;;;;;;;;;6175785;23;20084;-53
2022/03/30 03:34:00;;;;;;;72.35;31.52;;;;;;;;;;6179216;23;20026;-56
2022/03/30 03:36:25;;;;;;;72.93;32.55;;;;;;;;;;6177660;23;20017;-54
2022/03/30 03:38:51;;;;;;;64.55;30.30;;;;;;;;;;6179094;23;20040;-51
2022/03/30 03:41:16;;;;;;;76.97;32.67;;;;;;;;;;6178732;23;20025;-53
2022/03/30 03:43:42;;;;;;;77.20;33.40;;;;;;;;;;6178722;23;20031;-52
2022/03/30 03:46:07;;;;;;;65.50;29.50;;;;;;;;;;6171963;23;20495;-53
2022/03/30 03:48:32;;;;;;;80.25;35.42;;;;;;;;;;6179122;23;20573;-52
2022/03/30 03:50:58;;;;;;;79.15;36.38;;;;;;;;;;6178688;23;20069;-51
2022/03/30 03:53:23;;;;;;;83.70;34.17;;;;;;;;;;6177316;23;20016;-51
2022/03/30 03:55:49;;;;;;;75.53;35.05;;;;;;;;;;6179176;23;20076;-53
2022/03/30 03:58:14;;;;;;;78.85;35.97;;;;;;;;;;6178377;23;20052;-53
2022/03/30 04:00:39;;;;;;;81.25;35.85;;;;;;;;;;6177246;23;20017;-53
2022/03/30 04:03:05;;;;;;;77.70;35.15;;;;;;;;;;6177186;23;20013;-54
2022/03/30 04:05:30;;;;;;;77.30;36.33;;;;;;;;;;6177399;23;20052;-54
2022/03/30 04:07:55;;;;;;;74.88;34.67;;;;;;;;;;6179503;23;20017;-52
2022/03/30 04:10:21;;;;;;;82.93;35.55;;;;;;;;;;6178863;23;20060;-55
2022/03/30 04:12:46;;;;;;;81.78;34.58;;;;;;;;;;6178491;23;20013;-49
2022/03/30 04:15:12;;;;;;;81.18;34.45;;;;;;;;;;6179621;23;20024;-52
2022/03/30 04:17:42;;;;;;;71.45;34.65;;;;;;;;;;6177443;23;20044;-52
2022/03/30 04:20:07;;;;;;;83.90;35.08;;;;;;;;;;6178696;23;20009;-52
2022/03/30 04:22:32;;;;;;;80.95;33.65;;;;;;;;;;6179222;23;20099;-51
2022/03/30 04:24:58;;;;;;;90.45;35.67;;;;;;;;;;6178261;23;20040;-53
2022/03/30 04:27:23;;;;;;;80.47;35.20;;;;;;;;;;6177113;23;20041;-52
2022/03/30 04:29:48;;;;;;;86.40;35.28;;;;;;;;;;6178675;23;20044;-51
2022/03/30 04:32:14;;;;;;;73.70;34.78;;;;;;;;;;6179164;23;20653;-51
2022/03/30 04:34:39;;;;;;;76.20;34.45;;;;;;;;;;6177850;23;20068;-52
2022/03/30 04:37:04;;;;;;;81.25;37.22;;;;;;;;;;6152508;23;20064;-54
2022/03/30 04:39:30;;;;;;;82.03;35.90;;;;;;;;;;6177056;23;20464;-50
2022/03/30 04:41:55;;;;;;;83.28;38.03;;;;;;;;;;6177308;23;20021;-53
2022/03/30 04:44:21;;;;;;;91.13;36.65;;;;;;;;;;6174855;23;20017;-53
2022/03/30 04:46:47;;;;;;;84.88;37.08;;;;;;;;;;6179137;23;20080;-52
2022/03/30 04:49:12;;;;;;;86.65;39.90;;;;;;;;;;6177766;23;20020;-52
2022/03/30 04:51:37;;;;;;;81.13;37.40;;;;;;;;;;6178549;23;20017;-52
2022/03/30 04:54:03;;;;;;;79.15;35.40;;;;;;;;;;6177093;23;20019;-53
2022/03/30 04:56:28;;;;;;;91.82;37.85;;;;;;;;;;6177922;23;20029;-53
2022/03/30 04:58:53;;;;;;;84.80;33.63;;;;;;;;;;6177550;23;20021;-50
2022/03/30 05:01:19;;;;;;;81.78;36.30;;;;;;;;;;6177351;23;20013;-53
2022/03/30 05:03:44;;;;;;;78.72;36.53;;;;;;;;;;6176399;23;20410;-53
2022/03/30 05:06:09;;;;;;;83.40;35.03;;;;;;;;;;6177850;23;20021;-50
2022/03/30 05:08:34;;;;;;;85.88;36.80;;;;;;;;;;6175137;23;20013;-54
2022/03/30 05:11:00;;;;;;;86.78;38.83;;;;;;;;;;6179037;23;20017;-53
2022/03/30 05:13:25;;;;;;;90.13;37.88;;;;;;;;;;6175282;23;20064;-52
2022/03/30 05:15:51;;;;;;;83.22;38.40;;;;;;;;;;6179830;23;20021;-50
2022/03/30 05:18:16;;;;;;;88.82;37.55;;;;;;;;;;6176514;23;20670;-54
2022/03/30 05:20:42;;;;;;;93.00;38.78;;;;;;;;;;6178940;23;20021;-55
2022/03/30 05:23:08;;;;;;;83.25;38.47;;;;;;;;;;6176311;23;20065;-53
2022/03/30 05:25:33;;;;;;;78.25;33.45;;;;;;;;;;6177803;23;20028;-54
2022/03/30 05:27:58;;;;;;;87.45;37.25;;;;;;;;;;6176636;23;20010;-51
2022/03/30 05:30:23;;;;;;;68.88;35.65;;;;;;;;;;6177589;23;20106;-53
2022/03/30 05:32:49;;;;;;;83.82;37.35;;;;;;;;;;6176621;23;20013;-54
2022/03/30 05:35:14;;;;;;;77.03;36.45;;;;;;;;;;6178091;23;20021;-52
2022/03/30 05:37:40;;;;;;;84.45;35.75;;;;;;;;;;6177775;23;20091;-54
2022/03/30 05:40:06;;;;;;;80.85;34.17;;;;;;;;;;6178269;23;20616;-54
2022/03/30 05:42:32;;;;;;;101.57;35.65;;;;;;;;;;6174963;23;20029;-53
2022/03/30 05:44:57;;;;;;;93.13;35.67;;;;;;;;;;6178833;23;20020;-52
2022/03/30 05:47:22;;;;;;;78.32;30.75;;;;;;;;;;6175409;23;20021;-52
2022/03/30 05:49:48;;;;;;;77.97;31.45;;;;;;;;;;6178680;23;20536;-49
2022/03/30 05:52:13;;;;;;;66.35;29.38;;;;;;;;;;6176597;23;20017;-54
2022/03/30 05:54:38;;;;;;;69.28;25.92;;;;;;;;;;6178033;23;20458;-52
2022/03/30 05:57:05;;;;;;;59.22;27.20;;;;;;;;;;6176354;23;20021;-53
2022/03/30 05:59:40;;;;;;;66.82;28.55;;;;;;;;;;6176768;23;20060;-51
2022/03/30 06:02:06;;;;;;;66.20;26.63;;;;;;;;;;6175368;23;20108;-52
2022/03/30 06:04:31;;;;;;;69.75;31.95;;;;;;;;;;6177447;23;20427;-53
2022/03/30 06:06:57;;;;;;;66.03;28.63;;;;;;;;;;6177041;23;20092;-50
2022/03/30 06:09:22;;;;;;;61.60;28.98;;;;;;;;;;6177219;23;20040;-54
2022/03/30 06:11:47;;;;;;;68.50;29.00;;;;;;;;;;6175659;23;20069;-49
2022/03/30 06:14:16;;;;;;;65.10;28.77;;;;;;;;;;6178171;23;20013;-52
2022/03/30 06:16:41;;;;;;;59.17;26.23;;;;;;;;;;6175389;23;20204;-53
2022/03/30 06:19:07;;;;;;;50.38;24.17;;;;;;;;;;6178108;23;20005;-56
2022/03/30 06:21:33;;;;;;;58.72;25.35;;;;;;;;;;6175282;23;20013;-51
2022/03/30 06:23:58;;;;;;;52.38;24.70;;;;;;;;;;6152238;23;20035;-52
2022/03/30 06:26:24;;;;;;;59.03;25.35;;;;;;;;;;6172946;23;20013;-52
2022/03/30 06:28:49;;;;;;;65.90;25.85;;;;;;;;;;6152125;23;20021;-51
2022/03/30 06:31:18;;;;;;;61.55;24.75;;;;;;;;;;6149773;23;20016;-54
2022/03/30 06:33:44;;;;;;;51.70;24.02;;;;;;;;;;6173771;23;20017;-49
2022/03/30 06:36:10;;;;;;;52.65;24.00;;;;;;;;;;6178564;23;20089;-52
2022/03/30 06:38:36;;;;;;;54.60;25.33;;;;;;;;;;6175755;23;20009;-54
2022/03/30 06:41:01;;;;;;;65.03;25.42;;;;;;;;;;6177931;23;20021;-50
2022/03/30 06:43:27;;;;;;;48.92;22.00;;;;;;;;;;6174694;23;20089;-52
2022/03/30 06:45:52;;;;;;;55.97;23.20;;;;;;;;;;6178674;23;20017;-54
2022/03/30 06:48:18;;;;;;;57.38;22.90;;;;;;;;;;6176568;23;20563;-49
2022/03/30 06:50:43;;;;;;;52.80;22.60;;;;;;;;;;6177887;23;20013;-50
2022/03/30 06:53:10;;;;;;;57.75;23.23;;;;;;;;;;6176283;23;20013;-56
2022/03/30 06:55:37;;;;;;;56.22;23.70;;;;;;;;;;6177637;23;20032;-55
2022/03/30 06:58:02;;;;;;;51.40;22.52;;;;;;;;;;6173873;23;20023;-54
2022/03/30 07:00:27;;;;;;;50.45;24.10;;;;;;;;;;6174684;23;20013;-55
2022/03/30 07:02:53;;;;;;;54.70;23.63;;;;;;;;;;6176476;23;20029;-52
2022/03/30 07:05:18;;;;;;;48.38;24.15;;;;;;;;;;6175188;23;20013;-55
2022/03/30 07:10:27;;;;;;;58.15;23.70;;;;;;;;;;6177337;23;20024;-49
2022/03/30 07:12:53;;;;;;;53.30;23.27;;;;;;;;;;6178861;23;20009;-49
2022/03/30 07:15:19;;;;;;;53.83;23.52;;;;;;;;;;6177321;23;20408;-53
2022/03/30 07:17:46;;;;;;;47.85;23.05;;;;;;;;;;6177414;23;20409;-52
2022/03/30 07:20:11;;;;;;;50.90;23.65;;;;;;;;;;6176200;23;20040;-52
2022/03/30 07:22:37;;;;;;;50.90;23.38;;;;;;;;;;6176953;23;20019;-51
2022/03/30 07:25:02;;;;;;;52.50;22.60;;;;;;;;;;6176551;23;20044;-51
2022/03/30 07:27:28;;;;;;;52.88;23.45;;;;;;;;;;6176989;23;20017;-54
2022/03/30 07:29:53;;;;;;;45.95;23.83;;;;;;;;;;6177240;23;20021;-55
2022/03/30 07:32:19;;;;;;;50.25;23.33;;;;;;;;;;6178912;23;20386;-52
2022/03/30 07:34:45;;;;;;;56.38;24.90;;;;;;;;;;6178121;23;20028;-55
2022/03/30 07:37:10;;;;;;;55.85;25.23;;;;;;;;;;6179955;23;20070;-54
2022/03/30 07:39:35;;;;;;;54.05;24.33;;;;;;;;;;6174946;23;20093;-52
2022/03/30 07:42:01;;;;;;;57.30;22.77;;;;;;;;;;6179268;23;20655;-54
2022/03/30 07:44:26;;;;;;;55.53;25.25;;;;;;;;;;6177134;23;20848;-55
2022/03/30 07:46:51;;;;;;;49.45;23.23;;;;;;;;;;6177691;23;20064;-55
2022/03/30 07:49:17;;;;;;;56.65;25.60;;;;;;;;;;6176627;23;20044;-53
2022/03/30 07:51:42;;;;;;;56.53;24.00;;;;;;;;;;6179981;23;20076;-54
2022/03/30 07:54:08;;;;;;;59.25;24.00;;;;;;;;;;6178627;23;20098;-52
2022/03/30 07:56:34;;;;;;;52.22;24.08;;;;;;;;;;6170607;23;20021;-55
2022/03/30 07:59:00;;;;;;;54.65;24.63;;;;;;;;;;6175878;23;20092;-54
2022/03/30 08:01:25;;;;;;;50.65;22.48;;;;;;;;;;6174242;23;20040;-56
2022/03/30 08:03:51;;;;;;;50.10;22.92;;;;;;;;;;6174008;23;20016;-55
2022/03/30 08:06:16;;;;;;;50.45;23.75;;;;;;;;;;6173734;23;20101;-54
2022/03/30 08:08:42;;;;;;;50.55;23.80;;;;;;;;;;6171775;23;20013;-56
2022/03/30 08:11:07;;;;;;;55.03;23.95;;;;;;;;;;6166792;23;20023;-54
2022/03/30 08:13:33;;;;;;;50.67;24.10;;;;;;;;;;6119988;23;20053;-52
2022/03/30 08:15:58;;;;;;;54.75;24.55;;;;;;;;;;6174334;23;20099;-52
2022/03/30 08:18:26;;;;;;;57.30;25.33;;;;;;;;;;6146212;23;20069;-52
2022/03/30 08:23:36;;;;;;;55.92;24.08;;;;;;;;;;6168014;23;20016;-53
2022/03/30 08:26:02;;;;;;;58.97;23.30;;;;;;;;;;6145751;23;20024;-55
2022/03/30 08:28:27;;;;;;;55.55;23.58;;;;;;;;;;6172348;23;20013;-51
2022/03/30 08:30:52;;;;;;;55.83;23.55;;;;;;;;;;6150494;23;20027;-53
2022/03/30 08:33:23;;;;;;;52.00;23.33;;;;;;;;;;6172650;23;20781;-52
2022/03/30 08:35:48;;;;;;;46.67;22.17;;;;;;;;;;6167579;23;20370;-54
2022/03/30 08:38:14;;;;;;;55.55;25.10;;;;;;;;;;6177587;23;20076;-53
2022/03/30 08:40:39;;;;;;;52.47;22.38;;;;;;;;;;6174774;23;20033;-55
2022/03/30 08:43:05;;;;;;;49.08;24.05;;;;;;;;;;6177288;23;20059;-56
2022/03/30 08:45:31;;;;;;;50.53;23.88;;;;;;;;;;6174660;23;20017;-56
2022/03/30 08:47:56;;;;;;;47.22;23.08;;;;;;;;;;6179065;23;20016;-51
2022/03/30 08:50:22;;;;;;;49.22;22.30;;;;;;;;;;6175976;23;20020;-53
2022/03/30 08:52:49;;;;;;;52.00;22.65;;;;;;;;;;6178737;23;20020;-54
2022/03/30 08:55:15;;;;;;;53.55;22.23;;;;;;;;;;6176171;23;20095;-56
2022/03/30 08:57:40;;;;;;;48.38;23.40;;;;;;;;;;6178777;23;20017;-55
2022/03/30 09:00:08;;;;;;;52.22;23.05;;;;;;;;;;6177754;23;20351;-54
2022/03/30 09:02:41;;;;;;;52.92;24.40;;;;;;;;;;6175636;23;20013;-52
2022/03/30 09:05:19;;;;;;;48.80;23.33;;;;;;;;;;6176521;23;20458;-55
2022/03/30 09:07:48;;;;;;;46.72;23.48;;;;;;;;;;6176524;23;20092;-55
2022/03/30 09:10:20;;;;;;;52.75;23.77;;;;;;;;;;6157758;23;20013;-54
2022/03/30 09:12:47;;;;;;;51.15;22.17;;;;;;;;;;6177391;23;20069;-57
2022/03/30 09:15:13;;;;;;;46.25;22.83;;;;;;;;;;6175433;23;20211;-55
2022/03/30 09:17:39;;;;;;;48.08;21.35;;;;;;;;;;6178173;23;20714;-53
2022/03/30 09:20:05;;;;;;;57.78;24.50;;;;;;;;;;6175057;23;20675;-55
2022/03/30 09:22:32;;;;;;;54.28;25.70;;;;;;;;;;6177596;23;20013;-53
2022/03/30 09:24:57;;;;;;;50.88;24.02;;;;;;;;;;6176613;23;20005;-51
2022/03/30 09:27:24;;;;;;;52.10;23.67;;;;;;;;;;6177032;23;20091;-56
2022/03/30 09:29:49;;;;;;;52.47;24.00;;;;;;;;;;6148425;23;20005;-54
2022/03/30 09:32:15;;;;;;;48.67;22.75;;;;;;;;;;6177315;23;20024;-54
2022/03/30 09:34:50;;;;;;;51.60;25.13;;;;;;;;;;6175857;23;20036;-54
2022/03/30 09:37:16;;;;;;;47.92;23.17;;;;;;;;;;6177650;23;20009;-56
2022/03/30 09:39:42;;;;;;;42.53;21.20;;;;;;;;;;6176138;23;20025;-52
2022/03/30 09:42:08;;;;;;;50.17;24.52;;;;;;;;;;6169945;23;20378;-55
2022/03/30 09:44:51;;;;;;;52.92;22.88;;;;;;;;;;6137981;23;20009;-56
2022/03/30 09:47:17;;;;;;;53.22;23.27;;;;;;;;;;6177176;23;20021;-51
2022/03/30 09:49:45;;;;;;;50.20;23.98;;;;;;;;;;6175424;23;20021;-53
2022/03/30 09:52:15;;;;;;;46.72;23.00;;;;;;;;;;6175936;23;20548;-54
2022/03/30 09:54:40;;;;;;;50.72;22.85;;;;;;;;;;6177207;23;20098;-51
2022/03/30 09:57:13;;;;;;;50.28;24.05;;;;;;;;;;6175425;23;20021;-54
2022/03/30 10:00:03;;;;;;;48.83;22.08;;;;;;;;;;6175618;23;20619;-50
2022/03/30 10:02:28;;;;;;;;;;;;;;;;;;6175083;23;20048;-54
2022/03/30 10:04:54;;;;;;;55.25;23.85;;;;;;;;;;6169083;23;19908;-53
2022/03/30 10:07:21;;;;;;;52.40;23.58;;;;;;;;;;6176067;23;20231;-53
2022/03/30 10:09:47;;;;;;;52.42;26.25;;;;;;;;;;6174804;23;20183;-56
2022/03/30 10:12:15;;;;;;;47.92;22.20;;;;;;;;;;6169403;23;20013;-54
2022/03/30 10:14:41;;;;;;;46.55;22.02;;;;;;;;;;6146337;23;20025;-55
2022/03/30 10:17:06;;;;;;;44.83;22.20;;;;;;;;;;6157694;23;20032;-57
2022/03/30 10:19:32;;;;;;;44.10;21.48;;;;;;;;;;6176078;23;20031;-53
2022/03/30 10:22:17;;;;;;;52.88;22.23;;;;;;;;;;6173596;23;20009;-55
2022/03/30 10:24:42;;;;;;;55.95;23.10;;;;;;;;;;6176548;23;20017;-54
2022/03/30 10:27:26;;;;;;;54.65;24.85;;;;;;;;;;6163389;23;20335;-55
2022/03/30 10:29:53;;;;;;;60.58;24.10;;;;;;;;;;6177677;23;20091;-54
2022/03/30 10:32:25;;;;;;;52.47;24.83;;;;;;;;;;6174302;23;20017;-55
2022/03/30 10:34:50;;;;;;;48.40;22.52;;;;;;;;;;6178241;23;20021;-53
2022/03/30 10:37:23;;;;;;;52.35;24.40;;;;;;;;;;6158127;23;20013;-55
2022/03/30 10:40:05;;;;;;;64.55;25.27;;;;;;;;;;6172960;23;20011;-54
2022/03/30 10:42:46;;;;;;;51.28;26.00;;;;;;;;;;6160920;23;20383;-54
2022/03/30 10:45:17;;;;;;;51.45;26.02;;;;;;;;;;6140476;23;20017;-54
2022/03/30 10:48:03;;;;;;;50.70;25.55;;;;;;;;;;6136723;23;20321;-56
2022/03/30 10:50:35;;;;;;;55.17;23.63;;;;;;;;;;6137124;23;20077;-53
2022/03/30 10:53:00;;;;;;;56.63;25.05;;;;;;;;;;6144720;23;20020;-53
2022/03/30 10:55:25;;;;;;;54.22;25.90;;;;;;;;;;6144157;23;20112;-53
2022/03/30 10:57:53;;;;;;;52.92;24.70;;;;;;;;;;6141754;23;20037;-55
2022/03/30 11:00:20;;;;;;;53.25;26.17;;;;;;;;;;6141983;23;20081;-52
2022/03/30 11:02:45;;;;;;;56.80;27.48;;;;;;;;;;6167945;23;20028;-55
2022/03/30 11:05:12;;;;;;;50.67;26.30;;;;;;;;;;6142581;23;20041;-52
2022/03/30 11:07:38;;;;;;;56.38;24.75;;;;;;;;;;6147072;23;20463;-53
2022/03/30 11:10:19;;;;;;;57.70;24.63;;;;;;;;;;6149667;23;20014;-56
2022/03/30 11:12:58;;;;;;;59.10;23.98;;;;;;;;;;6145225;23;20044;-54
2022/03/30 11:15:24;;;;;;;58.40;27.00;;;;;;;;;;6147048;23;20033;-54
2022/03/30 11:17:49;;;;;;;52.03;25.92;;;;;;;;;;6146354;23;20020;-53
2022/03/30 11:20:15;;;;;;;53.45;24.27;;;;;;;;;;6149026;23;20044;-54
2022/03/30 11:22:44;;;;;;;48.10;25.05;;;;;;;;;;6141310;23;20019;-52
2022/03/30 11:25:19;;;;;;;53.25;24.15;;;;;;;;;;6144866;23;20044;-53
2022/03/30 11:28:04;;;;;;;54.08;25.25;;;;;;;;;;6141914;23;20022;-53
2022/03/30 11:30:31;;;;;;;47.40;23.73;;;;;;;;;;6166374;23;20009;-54
2022/03/30 11:33:00;;;;;;;59.30;24.92;;;;;;;;;;6145751;23;20017;-54
2022/03/30 11:35:28;;;;;;;56.25;25.65;;;;;;;;;;6131260;23;20035;-54
2022/03/30 11:37:53;;;;;;;50.55;23.15;;;;;;;;;;6156234;23;20095;-49
2022/03/30 11:40:20;;;;;;;60.70;26.15;;;;;;;;;;6153730;23;20021;-51
2022/03/30 11:42:50;;;;;;;48.25;24.73;;;;;;;;;;6152154;23;20032;-51
2022/03/30 11:45:19;;;;;;;55.00;25.67;;;;;;;;;;6171918;23;20021;-51
2022/03/30 11:47:47;;;;;;;51.63;24.30;;;;;;;;;;6177225;23;20017;-55
2022/03/30 11:50:14;;;;;;;51.75;24.35;;;;;;;;;;6176228;23;20005;-54
2022/03/30 11:52:39;;;;;;;52.92;23.83;;;;;;;;;;6177211;23;20029;-53
2022/03/30 11:55:07;;;;;;;48.63;23.90;;;;;;;;;;6175099;23;20025;-53
2022/03/30 11:57:36;;;;;;;55.13;24.90;;;;;;;;;;6177678;23;20118;-54
2022/03/30 12:00:05;;;;;;;50.17;23.08;;;;;;;;;;6177961;23;20017;-54
2022/03/30 12:02:30;;;;;;;47.90;25.52;;;;;;;;;;6178215;23;20013;-51
2022/03/30 12:04:56;;;;;;;51.90;24.40;;;;;;;;;;6175943;23;20013;-52
2022/03/30 12:07:22;;;;;;;52.03;22.48;;;;;;;;;;6177413;23;20060;-53
2022/03/30 12:09:48;;;;;;;59.30;24.98;;;;;;;;;;6171949;23;20021;-51
2022/03/30 12:12:31;;;;;;;53.78;25.45;;;;;;;;;;6176172;23;20067;-55
2022/03/30 12:15:00;;;;;;;45.65;21.77;;;;;;;;;;6141835;23;20378;-51
2022/03/30 12:17:26;;;;;;;56.67;24.45;;;;;;;;;;6175980;23;20064;-54
2022/03/30 12:19:52;;;;;;;53.90;23.98;;;;;;;;;;6174695;23;20049;-56
2022/03/30 12:22:17;;;;;;;56.55;23.92;;;;;;;;;;6176226;23;20017;-54
2022/03/30 12:24:42;;;;;;;56.67;24.27;;;;;;;;;;6175651;23;20017;-51
2022/03/30 12:27:08;;;;;;;54.03;23.55;;;;;;;;;;6178388;23;20092;-54
2022/03/30 12:29:33;;;;;;;46.40;22.00;;;;;;;;;;6176036;23;20021;-55
2022/03/30 12:32:02;;;;;;;60.42;26.10;;;;;;;;;;6178296;23;20013;-52
2022/03/30 12:34:31;;;;;;;49.77;24.97;;;;;;;;;;6173965;23;20009;-55
2022/03/30 12:36:58;;;;;;;58.60;23.50;;;;;;;;;;6179708;23;20021;-51
2022/03/30 12:39:23;;;;;;;56.88;23.77;;;;;;;;;;6175536;23;20052;-54
2022/03/30 12:41:55;;;;;;;45.13;21.98;;;;;;;;;;6174627;23;20350;-54
2022/03/30 12:44:20;;;;;;;43.13;21.02;;;;;;;;;;6164069;23;20120;-50
2022/03/30 12:46:46;;;;;;;49.92;23.08;;;;;;;;;;6171362;23;20726;-52
2022/03/30 12:49:11;;;;;;;53.60;22.55;;;;;;;;;;6175901;23;20514;-55
2022/03/30 12:51:37;;;;;;;48.70;22.42;;;;;;;;;;6178167;23;20009;-53
2022/03/30 12:54:04;;;;;;;51.45;23.23;;;;;;;;;;6176919;23;20017;-54
2022/03/30 12:56:30;;;;;;;51.55;22.90;;;;;;;;;;6179059;23;20155;-52
2022/03/30 12:58:57;;;;;;;52.05;23.45;;;;;;;;;;6176275;23;20009;-55
2022/03/30 13:01:29;;;;;;;44.22;21.95;;;;;;;;;;6176855;23;20051;-55
2022/03/30 13:03:55;;;;;;;51.22;21.88;;;;;;;;;;6176838;23;20017;-54
2022/03/30 13:06:21;;;;;;;47.75;21.38;;;;;;;;;;6173558;23;20369;-56
2022/03/30 13:09:05;;;;;;;43.35;21.95;;;;;;;;;;6175984;23;20020;-53
2022/03/30 13:11:30;;;;;;;41.83;21.88;;;;;;;;;;6177924;23;20024;-53
2022/03/30 13:13:57;;;;;;;47.00;21.50;;;;;;;;;;6149419;23;20005;-55
2022/03/30 13:16:28;;;;;;;50.15;23.45;;;;;;;;;;6177720;23;20028;-53
2022/03/30 13:19:00;;;;;;;47.50;21.70;;;;;;;;;;6174198;23;20013;-54
2022/03/30 13:21:34;;;;;;;47.03;21.75;;;;;;;;;;6173275;23;20017;-55
2022/03/30 13:24:08;;;;;;;46.80;22.55;;;;;;;;;;6176167;23;20013;-52
2022/03/30 13:26:37;;;;;;;48.55;22.70;;;;;;;;;;6175745;23;20044;-53
2022/03/30 13:29:03;;;;;;;47.72;20.98;;;;;;;;;;6176547;23;20088;-51
2022/03/30 13:31:28;;;;;;;41.55;21.40;;;;;;;;;;6176609;23;20149;-55
2022/03/30 13:33:55;;;;;;;47.38;21.30;;;;;;;;;;6173129;23;20009;-51
2022/03/30 13:36:20;;;;;;;50.22;22.13;;;;;;;;;;6150830;23;20386;-53
2022/03/30 13:38:47;;;;;;;40.90;22.98;;;;;;;;;;6174355;23;20017;-55
2022/03/30 13:41:13;;;;;;;45.63;21.20;;;;;;;;;;6178111;23;20024;-54
2022/03/30 13:43:39;;;;;;;48.70;23.52;;;;;;;;;;6170689;23;20025;-52
2022/03/30 13:46:04;;;;;;;39.70;21.75;;;;;;;;;;6173475;23;20318;-56
2022/03/30 13:48:30;;;;;;;47.70;23.02;;;;;;;;;;6147503;23;20073;-52
2022/03/30 13:50:55;;;;;;;48.10;22.00;;;;;;;;;;6176489;23;20009;-53
2022/03/30 13:53:20;;;;;;;46.22;22.15;;;;;;;;;;6175491;23;20017;-52
2022/03/30 13:55:46;;;;;;;54.45;22.30;;;;;;;;;;6175491;23;20025;-53
2022/03/30 13:58:12;;;;;;;52.78;21.05;;;;;;;;;;6175710;23;20024;-51
2022/03/30 14:00:37;;;;;;;47.45;23.60;;;;;;;;;;6166800;23;20480;-53
2022/03/30 14:03:03;;;;;;;50.35;21.92;;;;;;;;;;6170451;23;20510;-51
2022/03/30 14:05:28;;;;;;;39.90;20.45;;;;;;;;;;6172332;23;20031;-53
2022/03/30 14:07:54;;;;;;;43.40;23.00;;;;;;;;;;6177396;23;20009;-51
2022/03/30 14:10:21;;;;;;;39.67;21.35;;;;;;;;;;6171954;23;20017;-55
2022/03/30 14:12:46;;;;;;;48.17;21.67;;;;;;;;;;6177512;23;20048;-53
2022/03/30 14:15:11;;;;;;;43.05;21.92;;;;;;;;;;6174988;23;20028;-52
2022/03/30 14:17:37;;;;;;;49.08;23.25;;;;;;;;;;6147482;23;20020;-54
2022/03/30 14:20:03;;;;;;;44.97;20.67;;;;;;;;;;6172185;23;20027;-57
2022/03/30 14:22:28;;;;;;;44.42;22.70;;;;;;;;;;6174503;23;20021;-50
2022/03/30 14:24:54;;;;;;;44.17;20.70;;;;;;;;;;6148324;23;20013;-51